Aviation Digital Data Service (ADDS)

Output produced by METARs form (0042 UTC 26 June 2019)
found at http://aviationweather.gov/metar/data/
 
KHDC 260035Z AUTO 00000KT 10SM CLR 22/21 A3008 RMK AO2 LTG DSNT E
KHDC 260015Z AUTO 00000KT 10SM CLR 22/21 A3008 RMK AO2
KHDC 252355Z AUTO 06003KT 10SM VCTS CLR 22/21 A3008 RMK AO2 P0001
KHDC 252329Z 2600/2624 07005KT P6SM VCTS SCT060CB SCT080 BKN100 
     FM260100 00000KT P6SM OVC100 
     FM261700 08004KT P6SM BKN110